sensor_id;sensor_type;location;lat;lon;timestamp;P1;durP1;ratioP1;P2;durP2;ratioP2
8536;SDS011;4306;50.210;10.628;2023-05-07T00:00:59;8.65;;;7.10;;
8536;SDS011;4306;50.210;10.628;2023-05-07T00:03:26;9.25;;;6.80;;
8536;SDS011;4306;50.210;10.628;2023-05-07T00:05:53;8.60;;;6.85;;
8536;SDS011;4306;50.210;10.628;2023-05-07T00:08:21;9.20;;;7.45;;
8536;SDS011;4306;50.210;10.628;2023-05-07T00:10:48;9.07;;;7.25;;
8536;SDS011;4306;50.210;10.628;2023-05-07T00:13:15;8.68;;;7.45;;
8536;SDS011;4306;50.210;10.628;2023-05-07T00:15:42;8.10;;;7.03;;
8536;SDS011;4306;50.210;10.628;2023-05-07T00:18:09;7.95;;;7.15;;
8536;SDS011;4306;50.210;10.628;2023-05-07T00:20:36;9.45;;;7.50;;
8536;SDS011;4306;50.210;10.628;2023-05-07T00:23:02;9.85;;;7.50;;
8536;SDS011;4306;50.210;10.628;2023-05-07T00:25:31;10.35;;;7.80;;
8536;SDS011;4306;50.210;10.628;2023-05-07T00:27:58;8.60;;;7.40;;
8536;SDS011;4306;50.210;10.628;2023-05-07T00:30:28;9.75;;;7.78;;
8536;SDS011;4306;50.210;10.628;2023-05-07T00:32:55;10.95;;;8.50;;
8536;SDS011;4306;50.210;10.628;2023-05-07T00:35:22;9.60;;;7.75;;
8536;SDS011;4306;50.210;10.628;2023-05-07T00:37:49;8.90;;;7.75;;
8536;SDS011;4306;50.210;10.628;2023-05-07T00:40:16;11.98;;;8.50;;
8536;SDS011;4306;50.210;10.628;2023-05-07T00:42:44;10.00;;;8.35;;
8536;SDS011;4306;50.210;10.628;2023-05-07T00:45:12;12.80;;;8.98;;
8536;SDS011;4306;50.210;10.628;2023-05-07T00:47:39;11.45;;;8.25;;
8536;SDS011;4306;50.210;10.628;2023-05-07T00:50:06;10.25;;;7.97;;
8536;SDS011;4306;50.210;10.628;2023-05-07T00:52:36;10.02;;;8.60;;
8536;SDS011;4306;50.210;10.628;2023-05-07T00:55:04;11.30;;;9.00;;
8536;SDS011;4306;50.210;10.628;2023-05-07T00:57:33;10.90;;;9.15;;
8536;SDS011;4306;50.210;10.628;2023-05-07T01:00:05;10.15;;;8.85;;
8536;SDS011;4306;50.210;10.628;2023-05-07T01:02:33;10.38;;;9.02;;
8536;SDS011;4306;50.210;10.628;2023-05-07T01:05:01;10.35;;;8.98;;
8536;SDS011;4306;50.210;10.628;2023-05-07T01:07:29;10.43;;;9.23;;
8536;SDS011;4306;50.210;10.628;2023-05-07T01:09:56;14.57;;;9.13;;
8536;SDS011;4306;50.210;10.628;2023-05-07T01:12:24;12.15;;;9.18;;
8536;SDS011;4306;50.210;10.628;2023-05-07T01:14:52;12.65;;;8.70;;
8536;SDS011;4306;50.210;10.628;2023-05-07T01:17:21;11.65;;;9.63;;
8536;SDS011;4306;50.210;10.628;2023-05-07T01:19:48;12.18;;;9.75;;
8536;SDS011;4306;50.210;10.628;2023-05-07T01:22:15;10.98;;;8.85;;
8536;SDS011;4306;50.210;10.628;2023-05-07T01:24:48;11.25;;;9.18;;
8536;SDS011;4306;50.210;10.628;2023-05-07T01:27:15;12.50;;;10.00;;
8536;SDS011;4306;50.210;10.628;2023-05-07T01:29:42;13.48;;;9.38;;
8536;SDS011;4306;50.210;10.628;2023-05-07T01:32:09;11.75;;;9.40;;
8536;SDS011;4306;50.210;10.628;2023-05-07T01:34:37;11.38;;;9.90;;
8536;SDS011;4306;50.210;10.628;2023-05-07T01:37:05;12.20;;;9.68;;
8536;SDS011;4306;50.210;10.628;2023-05-07T01:39:33;12.45;;;10.52;;
8536;SDS011;4306;50.210;10.628;2023-05-07T01:42:01;12.77;;;10.43;;
8536;SDS011;4306;50.210;10.628;2023-05-07T01:44:28;11.55;;;9.77;;
8536;SDS011;4306;50.210;10.628;2023-05-07T01:46:55;11.98;;;9.07;;
8536;SDS011;4306;50.210;10.628;2023-05-07T01:49:23;14.05;;;10.30;;
8536;SDS011;4306;50.210;10.628;2023-05-07T01:51:50;16.13;;;11.75;;
8536;SDS011;4306;50.210;10.628;2023-05-07T01:54:18;13.05;;;10.38;;
8536;SDS011;4306;50.210;10.628;2023-05-07T01:56:45;12.93;;;10.57;;
8536;SDS011;4306;50.210;10.628;2023-05-07T01:59:14;14.27;;;10.80;;
8536;SDS011;4306;50.210;10.628;2023-05-07T02:01:41;14.73;;;11.90;;
8536;SDS011;4306;50.210;10.628;2023-05-07T02:04:08;15.05;;;11.55;;
8536;SDS011;4306;50.210;10.628;2023-05-07T02:06:34;15.13;;;12.18;;
8536;SDS011;4306;50.210;10.628;2023-05-07T02:09:01;13.70;;;11.20;;
8536;SDS011;4306;50.210;10.628;2023-05-07T02:11:28;16.10;;;11.73;;
8536;SDS011;4306;50.210;10.628;2023-05-07T02:13:55;15.80;;;12.10;;
8536;SDS011;4306;50.210;10.628;2023-05-07T02:16:23;14.50;;;11.02;;
8536;SDS011;4306;50.210;10.628;2023-05-07T02:18:50;16.10;;;12.13;;
8536;SDS011;4306;50.210;10.628;2023-05-07T02:21:17;15.98;;;12.18;;
8536;SDS011;4306;50.210;10.628;2023-05-07T02:23:44;17.90;;;12.43;;
8536;SDS011;4306;50.210;10.628;2023-05-07T02:26:11;14.32;;;11.35;;
8536;SDS011;4306;50.210;10.628;2023-05-07T02:28:38;16.33;;;11.90;;
8536;SDS011;4306;50.210;10.628;2023-05-07T02:31:04;15.93;;;12.27;;
8536;SDS011;4306;50.210;10.628;2023-05-07T02:33:33;14.88;;;12.05;;
8536;SDS011;4306;50.210;10.628;2023-05-07T02:36:07;16.20;;;11.43;;
8536;SDS011;4306;50.210;10.628;2023-05-07T02:38:35;17.50;;;11.43;;
8536;SDS011;4306;50.210;10.628;2023-05-07T02:41:02;15.88;;;12.50;;
8536;SDS011;4306;50.210;10.628;2023-05-07T02:43:29;16.40;;;12.07;;
8536;SDS011;4306;50.210;10.628;2023-05-07T02:46:02;14.00;;;12.27;;
8536;SDS011;4306;50.210;10.628;2023-05-07T02:48:29;16.45;;;12.35;;
8536;SDS011;4306;50.210;10.628;2023-05-07T02:50:57;17.30;;;12.98;;
8536;SDS011;4306;50.210;10.628;2023-05-07T02:53:25;15.20;;;12.30;;
8536;SDS011;4306;50.210;10.628;2023-05-07T02:55:52;16.08;;;13.05;;
8536;SDS011;4306;50.210;10.628;2023-05-07T02:58:19;17.17;;;13.13;;
8536;SDS011;4306;50.210;10.628;2023-05-07T03:00:46;15.48;;;11.88;;
8536;SDS011;4306;50.210;10.628;2023-05-07T03:03:13;17.20;;;13.45;;
8536;SDS011;4306;50.210;10.628;2023-05-07T03:05:39;16.20;;;12.13;;
8536;SDS011;4306;50.210;10.628;2023-05-07T03:08:08;19.27;;;13.27;;
8536;SDS011;4306;50.210;10.628;2023-05-07T03:10:35;15.60;;;13.20;;
8536;SDS011;4306;50.210;10.628;2023-05-07T03:13:02;14.48;;;11.93;;
8536;SDS011;4306;50.210;10.628;2023-05-07T03:15:30;16.08;;;12.48;;
8536;SDS011;4306;50.210;10.628;2023-05-07T03:17:56;15.82;;;12.43;;
8536;SDS011;4306;50.210;10.628;2023-05-07T03:20:23;16.90;;;12.02;;
8536;SDS011;4306;50.210;10.628;2023-05-07T03:22:50;17.17;;;12.80;;
8536;SDS011;4306;50.210;10.628;2023-05-07T03:25:18;17.10;;;12.52;;
8536;SDS011;4306;50.210;10.628;2023-05-07T03:27:45;16.38;;;12.43;;
8536;SDS011;4306;50.210;10.628;2023-05-07T03:30:12;15.10;;;11.93;;
8536;SDS011;4306;50.210;10.628;2023-05-07T03:32:39;19.17;;;12.80;;
8536;SDS011;4306;50.210;10.628;2023-05-07T03:35:06;15.77;;;13.00;;
8536;SDS011;4306;50.210;10.628;2023-05-07T03:37:33;17.00;;;13.07;;
8536;SDS011;4306;50.210;10.628;2023-05-07T03:40:00;17.45;;;12.48;;
8536;SDS011;4306;50.210;10.628;2023-05-07T03:42:28;15.65;;;12.65;;
8536;SDS011;4306;50.210;10.628;2023-05-07T03:44:55;16.40;;;12.05;;
8536;SDS011;4306;50.210;10.628;2023-05-07T03:47:22;15.35;;;11.27;;
8536;SDS011;4306;50.210;10.628;2023-05-07T03:49:49;16.48;;;12.63;;
8536;SDS011;4306;50.210;10.628;2023-05-07T03:52:17;16.25;;;12.13;;
8536;SDS011;4306;50.210;10.628;2023-05-07T03:54:48;16.55;;;12.38;;
8536;SDS011;4306;50.210;10.628;2023-05-07T03:57:15;18.40;;;13.18;;
8536;SDS011;4306;50.210;10.628;2023-05-07T03:59:43;16.13;;;11.98;;
8536;SDS011;4306;50.210;10.628;2023-05-07T04:02:10;17.15;;;13.00;;
8536;SDS011;4306;50.210;10.628;2023-05-07T04:04:37;17.58;;;13.02;;
8536;SDS011;4306;50.210;10.628;2023-05-07T04:07:04;18.35;;;13.60;;
8536;SDS011;4306;50.210;10.628;2023-05-07T04:09:32;16.83;;;13.15;;
8536;SDS011;4306;50.210;10.628;2023-05-07T04:11:59;17.35;;;13.32;;
8536;SDS011;4306;50.210;10.628;2023-05-07T04:14:26;16.52;;;12.32;;
8536;SDS011;4306;50.210;10.628;2023-05-07T04:16:54;18.58;;;12.57;;
8536;SDS011;4306;50.210;10.628;2023-05-07T04:19:21;16.65;;;13.05;;
8536;SDS011;4306;50.210;10.628;2023-05-07T04:21:48;20.08;;;13.45;;
8536;SDS011;4306;50.210;10.628;2023-05-07T04:24:15;20.02;;;12.43;;
8536;SDS011;4306;50.210;10.628;2023-05-07T04:26:42;19.15;;;13.63;;
8536;SDS011;4306;50.210;10.628;2023-05-07T04:29:11;16.95;;;12.75;;
8536;SDS011;4306;50.210;10.628;2023-05-07T04:31:39;17.10;;;12.90;;
8536;SDS011;4306;50.210;10.628;2023-05-07T04:34:07;21.17;;;13.50;;
8536;SDS011;4306;50.210;10.628;2023-05-07T04:36:34;20.08;;;13.02;;
8536;SDS011;4306;50.210;10.628;2023-05-07T04:39:02;17.70;;;12.45;;
8536;SDS011;4306;50.210;10.628;2023-05-07T04:41:29;15.68;;;11.93;;
8536;SDS011;4306;50.210;10.628;2023-05-07T04:43:56;16.48;;;12.50;;
8536;SDS011;4306;50.210;10.628;2023-05-07T04:46:24;16.60;;;12.20;;
8536;SDS011;4306;50.210;10.628;2023-05-07T04:48:53;16.85;;;12.00;;
8536;SDS011;4306;50.210;10.628;2023-05-07T04:51:21;15.50;;;11.55;;
8536;SDS011;4306;50.210;10.628;2023-05-07T04:53:52;19.50;;;11.77;;
8536;SDS011;4306;50.210;10.628;2023-05-07T04:56:19;16.45;;;10.77;;
8536;SDS011;4306;50.210;10.628;2023-05-07T04:58:46;15.40;;;11.68;;
8536;SDS011;4306;50.210;10.628;2023-05-07T05:01:13;13.43;;;11.02;;
8536;SDS011;4306;50.210;10.628;2023-05-07T05:03:41;17.60;;;11.73;;
8536;SDS011;4306;50.210;10.628;2023-05-07T05:06:08;14.48;;;11.13;;
8536;SDS011;4306;50.210;10.628;2023-05-07T05:08:38;14.05;;;11.90;;
8536;SDS011;4306;50.210;10.628;2023-05-07T05:11:05;16.65;;;11.63;;
8536;SDS011;4306;50.210;10.628;2023-05-07T05:13:32;14.70;;;11.40;;
8536;SDS011;4306;50.210;10.628;2023-05-07T05:15:59;15.43;;;10.45;;
8536;SDS011;4306;50.210;10.628;2023-05-07T05:18:26;13.13;;;10.50;;
8536;SDS011;4306;50.210;10.628;2023-05-07T05:20:53;12.50;;;10.40;;
8536;SDS011;4306;50.210;10.628;2023-05-07T05:23:24;15.55;;;11.10;;
8536;SDS011;4306;50.210;10.628;2023-05-07T05:25:56;12.70;;;9.82;;
8536;SDS011;4306;50.210;10.628;2023-05-07T05:28:23;14.40;;;10.93;;
8536;SDS011;4306;50.210;10.628;2023-05-07T05:30:50;14.00;;;10.20;;
8536;SDS011;4306;50.210;10.628;2023-05-07T05:33:18;13.65;;;10.85;;
8536;SDS011;4306;50.210;10.628;2023-05-07T05:35:49;12.40;;;9.75;;
8536;SDS011;4306;50.210;10.628;2023-05-07T05:38:16;13.50;;;10.25;;
8536;SDS011;4306;50.210;10.628;2023-05-07T05:40:43;13.15;;;9.93;;
8536;SDS011;4306;50.210;10.628;2023-05-07T05:43:12;12.48;;;9.00;;
8536;SDS011;4306;50.210;10.628;2023-05-07T05:45:43;18.38;;;11.40;;
8536;SDS011;4306;50.210;10.628;2023-05-07T05:48:11;19.23;;;12.75;;
8536;SDS011;4306;50.210;10.628;2023-05-07T05:50:38;14.88;;;9.85;;
8536;SDS011;4306;50.210;10.628;2023-05-07T05:53:05;18.10;;;12.48;;
8536;SDS011;4306;50.210;10.628;2023-05-07T05:55:32;13.57;;;10.85;;
8536;SDS011;4306;50.210;10.628;2023-05-07T05:57:59;13.68;;;10.80;;
8536;SDS011;4306;50.210;10.628;2023-05-07T06:00:28;15.23;;;11.27;;
8536;SDS011;4306;50.210;10.628;2023-05-07T06:02:55;18.90;;;12.02;;
8536;SDS011;4306;50.210;10.628;2023-05-07T06:05:22;21.90;;;14.75;;
8536;SDS011;4306;50.210;10.628;2023-05-07T06:07:49;21.40;;;14.35;;
8536;SDS011;4306;50.210;10.628;2023-05-07T06:10:16;18.85;;;13.45;;
8536;SDS011;4306;50.210;10.628;2023-05-07T06:12:43;17.60;;;13.52;;
8536;SDS011;4306;50.210;10.628;2023-05-07T06:15:10;16.50;;;11.90;;
8536;SDS011;4306;50.210;10.628;2023-05-07T06:17:38;19.77;;;13.25;;
8536;SDS011;4306;50.210;10.628;2023-05-07T06:20:06;16.25;;;11.65;;
8536;SDS011;4306;50.210;10.628;2023-05-07T06:22:33;13.77;;;12.23;;
8536;SDS011;4306;50.210;10.628;2023-05-07T06:25:00;15.43;;;12.00;;
8536;SDS011;4306;50.210;10.628;2023-05-07T06:27:27;18.05;;;12.88;;
8536;SDS011;4306;50.210;10.628;2023-05-07T06:29:54;16.50;;;11.43;;
8536;SDS011;4306;50.210;10.628;2023-05-07T06:32:24;14.95;;;10.98;;
8536;SDS011;4306;50.210;10.628;2023-05-07T06:34:55;15.02;;;11.48;;
8536;SDS011;4306;50.210;10.628;2023-05-07T06:37:22;16.80;;;12.23;;
8536;SDS011;4306;50.210;10.628;2023-05-07T06:39:53;17.23;;;10.85;;
8536;SDS011;4306;50.210;10.628;2023-05-07T06:42:20;14.27;;;10.50;;
8536;SDS011;4306;50.210;10.628;2023-05-07T06:44:48;13.02;;;10.35;;
8536;SDS011;4306;50.210;10.628;2023-05-07T06:47:15;14.10;;;10.95;;
8536;SDS011;4306;50.210;10.628;2023-05-07T06:49:41;14.00;;;10.85;;
8536;SDS011;4306;50.210;10.628;2023-05-07T06:52:10;13.27;;;10.75;;
8536;SDS011;4306;50.210;10.628;2023-05-07T06:54:37;12.85;;;10.60;;
8536;SDS011;4306;50.210;10.628;2023-05-07T06:57:03;13.65;;;10.98;;
8536;SDS011;4306;50.210;10.628;2023-05-07T06:59:30;15.70;;;10.60;;
8536;SDS011;4306;50.210;10.628;2023-05-07T07:01:57;14.13;;;11.30;;
8536;SDS011;4306;50.210;10.628;2023-05-07T07:04:24;13.95;;;10.23;;
8536;SDS011;4306;50.210;10.628;2023-05-07T07:06:51;14.23;;;11.05;;
8536;SDS011;4306;50.210;10.628;2023-05-07T07:09:20;14.90;;;13.32;;
8536;SDS011;4306;50.210;10.628;2023-05-07T07:11:47;12.45;;;10.32;;
8536;SDS011;4306;50.210;10.628;2023-05-07T07:14:14;13.45;;;10.45;;
8536;SDS011;4306;50.210;10.628;2023-05-07T07:16:41;13.98;;;10.63;;
8536;SDS011;4306;50.210;10.628;2023-05-07T07:19:07;13.93;;;10.55;;
8536;SDS011;4306;50.210;10.628;2023-05-07T07:21:34;13.02;;;10.43;;
8536;SDS011;4306;50.210;10.628;2023-05-07T07:24:01;13.30;;;9.90;;
8536;SDS011;4306;50.210;10.628;2023-05-07T07:26:29;13.00;;;9.75;;
8536;SDS011;4306;50.210;10.628;2023-05-07T07:28:56;12.02;;;9.43;;
8536;SDS011;4306;50.210;10.628;2023-05-07T07:31:23;12.10;;;9.43;;
8536;SDS011;4306;50.210;10.628;2023-05-07T07:33:50;13.88;;;11.25;;
8536;SDS011;4306;50.210;10.628;2023-05-07T07:36:17;14.43;;;11.15;;
8536;SDS011;4306;50.210;10.628;2023-05-07T07:38:44;12.95;;;9.13;;
8536;SDS011;4306;50.210;10.628;2023-05-07T07:41:10;11.73;;;9.60;;
8536;SDS011;4306;50.210;10.628;2023-05-07T07:43:39;11.57;;;9.43;;
8536;SDS011;4306;50.210;10.628;2023-05-07T07:46:05;12.10;;;9.57;;
8536;SDS011;4306;50.210;10.628;2023-05-07T07:48:33;12.13;;;9.45;;
8536;SDS011;4306;50.210;10.628;2023-05-07T07:50:59;12.05;;;9.45;;
8536;SDS011;4306;50.210;10.628;2023-05-07T07:53:26;14.35;;;12.30;;
8536;SDS011;4306;50.210;10.628;2023-05-07T07:55:53;13.45;;;8.95;;
8536;SDS011;4306;50.210;10.628;2023-05-07T07:58:20;12.13;;;8.77;;
8536;SDS011;4306;50.210;10.628;2023-05-07T08:00:49;11.68;;;9.68;;
8536;SDS011;4306;50.210;10.628;2023-05-07T08:03:16;11.75;;;10.55;;
8536;SDS011;4306;50.210;10.628;2023-05-07T08:05:44;14.63;;;9.02;;
8536;SDS011;4306;50.210;10.628;2023-05-07T08:08:11;11.15;;;9.13;;
8536;SDS011;4306;50.210;10.628;2023-05-07T08:10:38;12.05;;;9.32;;
8536;SDS011;4306;50.210;10.628;2023-05-07T08:13:05;16.42;;;14.93;;
8536;SDS011;4306;50.210;10.628;2023-05-07T08:15:32;12.52;;;9.55;;
8536;SDS011;4306;50.210;10.628;2023-05-07T08:18:00;13.88;;;9.60;;
8536;SDS011;4306;50.210;10.628;2023-05-07T08:20:28;13.65;;;8.90;;
8536;SDS011;4306;50.210;10.628;2023-05-07T08:22:55;10.77;;;9.18;;
8536;SDS011;4306;50.210;10.628;2023-05-07T08:25:22;22.05;;;20.15;;
8536;SDS011;4306;50.210;10.628;2023-05-07T08:27:49;13.48;;;12.05;;
8536;SDS011;4306;50.210;10.628;2023-05-07T08:30:15;10.52;;;8.70;;
8536;SDS011;4306;50.210;10.628;2023-05-07T08:32:42;12.23;;;9.50;;
8536;SDS011;4306;50.210;10.628;2023-05-07T08:35:11;11.02;;;9.05;;
8536;SDS011;4306;50.210;10.628;2023-05-07T08:37:37;17.88;;;16.38;;
8536;SDS011;4306;50.210;10.628;2023-05-07T08:40:05;11.50;;;8.55;;
8536;SDS011;4306;50.210;10.628;2023-05-07T08:42:33;10.00;;;8.07;;
8536;SDS011;4306;50.210;10.628;2023-05-07T08:45:03;11.88;;;10.00;;
8536;SDS011;4306;50.210;10.628;2023-05-07T08:47:39;11.23;;;8.95;;
8536;SDS011;4306;50.210;10.628;2023-05-07T08:50:11;10.88;;;8.40;;
8536;SDS011;4306;50.210;10.628;2023-05-07T08:52:38;10.25;;;8.68;;
8536;SDS011;4306;50.210;10.628;2023-05-07T08:55:06;11.98;;;9.30;;
8536;SDS011;4306;50.210;10.628;2023-05-07T08:57:33;9.23;;;8.00;;
8536;SDS011;4306;50.210;10.628;2023-05-07T09:00:01;10.25;;;8.38;;
8536;SDS011;4306;50.210;10.628;2023-05-07T09:02:28;10.30;;;7.80;;
8536;SDS011;4306;50.210;10.628;2023-05-07T09:04:55;10.63;;;7.65;;
8536;SDS011;4306;50.210;10.628;2023-05-07T09:07:23;9.40;;;7.30;;
8536;SDS011;4306;50.210;10.628;2023-05-07T09:09:51;11.57;;;8.75;;
8536;SDS011;4306;50.210;10.628;2023-05-07T09:12:20;9.50;;;8.50;;
8536;SDS011;4306;50.210;10.628;2023-05-07T09:14:48;8.77;;;7.53;;
8536;SDS011;4306;50.210;10.628;2023-05-07T09:17:15;11.27;;;9.75;;
8536;SDS011;4306;50.210;10.628;2023-05-07T09:19:43;9.45;;;7.40;;
8536;SDS011;4306;50.210;10.628;2023-05-07T09:22:10;11.93;;;7.50;;
8536;SDS011;4306;50.210;10.628;2023-05-07T09:24:39;10.07;;;8.80;;
8536;SDS011;4306;50.210;10.628;2023-05-07T09:27:06;8.18;;;7.25;;
8536;SDS011;4306;50.210;10.628;2023-05-07T09:29:35;8.43;;;6.93;;
8536;SDS011;4306;50.210;10.628;2023-05-07T09:32:03;11.45;;;9.30;;
8536;SDS011;4306;50.210;10.628;2023-05-07T09:34:31;17.05;;;15.70;;
8536;SDS011;4306;50.210;10.628;2023-05-07T09:36:58;25.10;;;23.42;;
8536;SDS011;4306;50.210;10.628;2023-05-07T09:39:26;12.00;;;10.88;;
8536;SDS011;4306;50.210;10.628;2023-05-07T09:42:05;7.40;;;6.40;;
8536;SDS011;4306;50.210;10.628;2023-05-07T09:44:33;8.07;;;6.47;;
8536;SDS011;4306;50.210;10.628;2023-05-07T09:47:00;9.00;;;6.22;;
8536;SDS011;4306;50.210;10.628;2023-05-07T09:49:30;9.23;;;6.72;;
8536;SDS011;4306;50.210;10.628;2023-05-07T09:52:01;7.15;;;5.40;;
8536;SDS011;4306;50.210;10.628;2023-05-07T09:54:31;9.02;;;8.18;;
8536;SDS011;4306;50.210;10.628;2023-05-07T09:56:59;8.15;;;6.90;;
8536;SDS011;4306;50.210;10.628;2023-05-07T09:59:30;7.60;;;6.65;;
8536;SDS011;4306;50.210;10.628;2023-05-07T10:02:00;8.18;;;6.53;;
8536;SDS011;4306;50.210;10.628;2023-05-07T10:04:29;9.80;;;8.90;;
8536;SDS011;4306;50.210;10.628;2023-05-07T10:06:57;9.50;;;8.60;;
8536;SDS011;4306;50.210;10.628;2023-05-07T10:09:25;7.00;;;5.25;;
8536;SDS011;4306;50.210;10.628;2023-05-07T10:11:52;7.55;;;5.50;;
8536;SDS011;4306;50.210;10.628;2023-05-07T10:14:21;5.95;;;4.68;;
8536;SDS011;4306;50.210;10.628;2023-05-07T10:16:49;6.55;;;5.10;;
8536;SDS011;4306;50.210;10.628;2023-05-07T10:19:17;7.68;;;4.97;;
8536;SDS011;4306;50.210;10.628;2023-05-07T10:21:48;6.10;;;4.80;;
8536;SDS011;4306;50.210;10.628;2023-05-07T10:24:21;7.65;;;5.20;;
8536;SDS011;4306;50.210;10.628;2023-05-07T10:26:52;6.07;;;4.60;;
8536;SDS011;4306;50.210;10.628;2023-05-07T10:29:21;7.80;;;4.95;;
8536;SDS011;4306;50.210;10.628;2023-05-07T10:31:58;6.47;;;4.70;;
8536;SDS011;4306;50.210;10.628;2023-05-07T10:34:34;9.05;;;4.68;;
8536;SDS011;4306;50.210;10.628;2023-05-07T10:37:03;7.00;;;4.55;;
8536;SDS011;4306;50.210;10.628;2023-05-07T10:39:30;11.65;;;5.78;;
8536;SDS011;4306;50.210;10.628;2023-05-07T10:42:06;5.00;;;3.92;;
8536;SDS011;4306;50.210;10.628;2023-05-07T10:44:34;7.85;;;4.18;;
8536;SDS011;4306;50.210;10.628;2023-05-07T10:47:07;5.20;;;4.10;;
8536;SDS011;4306;50.210;10.628;2023-05-07T10:49:36;7.18;;;4.25;;
8536;SDS011;4306;50.210;10.628;2023-05-07T10:52:25;5.53;;;4.07;;
8536;SDS011;4306;50.210;10.628;2023-05-07T10:57:46;5.95;;;4.47;;
8536;SDS011;4306;50.210;10.628;2023-05-07T11:03:10;9.07;;;8.25;;
8536;SDS011;4306;50.210;10.628;2023-05-07T11:05:38;4.68;;;3.40;;
8536;SDS011;4306;50.210;10.628;2023-05-07T11:08:05;4.45;;;3.53;;
8536;SDS011;4306;50.210;10.628;2023-05-07T11:10:47;4.72;;;3.80;;
8536;SDS011;4306;50.210;10.628;2023-05-07T11:13:16;5.60;;;3.78;;
8536;SDS011;4306;50.210;10.628;2023-05-07T11:15:45;4.88;;;3.58;;
8536;SDS011;4306;50.210;10.628;2023-05-07T11:18:15;4.90;;;3.38;;
8536;SDS011;4306;50.210;10.628;2023-05-07T11:20:53;4.93;;;3.72;;
8536;SDS011;4306;50.210;10.628;2023-05-07T11:26:42;4.43;;;3.50;;
8536;SDS011;4306;50.210;10.628;2023-05-07T11:29:11;5.93;;;3.15;;
8536;SDS011;4306;50.210;10.628;2023-05-07T11:31:39;6.03;;;3.33;;
8536;SDS011;4306;50.210;10.628;2023-05-07T11:34:07;4.47;;;2.88;;
8536;SDS011;4306;50.210;10.628;2023-05-07T11:36:34;4.70;;;3.70;;
8536;SDS011;4306;50.210;10.628;2023-05-07T11:41:56;5.15;;;3.28;;
8536;SDS011;4306;50.210;10.628;2023-05-07T11:44:23;16.70;;;15.52;;
8536;SDS011;4306;50.210;10.628;2023-05-07T11:46:50;4.65;;;3.83;;
8536;SDS011;4306;50.210;10.628;2023-05-07T11:49:18;12.80;;;12.00;;
8536;SDS011;4306;50.210;10.628;2023-05-07T11:51:45;8.93;;;8.23;;
8536;SDS011;4306;50.210;10.628;2023-05-07T11:54:15;3.88;;;2.90;;
8536;SDS011;4306;50.210;10.628;2023-05-07T11:56:43;6.63;;;3.70;;
8536;SDS011;4306;50.210;10.628;2023-05-07T11:59:11;6.13;;;4.47;;
8536;SDS011;4306;50.210;10.628;2023-05-07T12:01:44;10.13;;;9.32;;
8536;SDS011;4306;50.210;10.628;2023-05-07T12:04:12;5.13;;;3.42;;
8536;SDS011;4306;50.210;10.628;2023-05-07T12:06:40;5.93;;;5.13;;
8536;SDS011;4306;50.210;10.628;2023-05-07T12:09:07;4.90;;;2.90;;
8536;SDS011;4306;50.210;10.628;2023-05-07T12:11:36;6.15;;;5.60;;
8536;SDS011;4306;50.210;10.628;2023-05-07T12:14:04;4.38;;;3.40;;
8536;SDS011;4306;50.210;10.628;2023-05-07T12:16:31;6.55;;;6.00;;
8536;SDS011;4306;50.210;10.628;2023-05-07T12:18:59;20.88;;;19.40;;
8536;SDS011;4306;50.210;10.628;2023-05-07T12:21:26;5.25;;;3.22;;
8536;SDS011;4306;50.210;10.628;2023-05-07T12:23:54;13.48;;;12.45;;
8536;SDS011;4306;50.210;10.628;2023-05-07T12:26:23;4.85;;;3.38;;
8536;SDS011;4306;50.210;10.628;2023-05-07T12:28:50;6.85;;;3.45;;
8536;SDS011;4306;50.210;10.628;2023-05-07T12:31:17;5.43;;;3.35;;
8536;SDS011;4306;50.210;10.628;2023-05-07T12:33:44;4.82;;;3.60;;
8536;SDS011;4306;50.210;10.628;2023-05-07T12:36:12;3.92;;;2.90;;
8536;SDS011;4306;50.210;10.628;2023-05-07T12:38:39;9.65;;;8.98;;
8536;SDS011;4306;50.210;10.628;2023-05-07T12:41:08;4.00;;;3.13;;
8536;SDS011;4306;50.210;10.628;2023-05-07T12:43:37;18.95;;;17.90;;
8536;SDS011;4306;50.210;10.628;2023-05-07T12:46:04;5.55;;;3.13;;
8536;SDS011;4306;50.210;10.628;2023-05-07T12:48:32;3.97;;;3.30;;
8536;SDS011;4306;50.210;10.628;2023-05-07T12:51:00;3.50;;;2.58;;
8536;SDS011;4306;50.210;10.628;2023-05-07T12:53:28;6.07;;;3.10;;
8536;SDS011;4306;50.210;10.628;2023-05-07T12:55:56;4.03;;;3.00;;
8536;SDS011;4306;50.210;10.628;2023-05-07T12:58:26;4.70;;;4.28;;
8536;SDS011;4306;50.210;10.628;2023-05-07T13:00:55;6.47;;;5.97;;
8536;SDS011;4306;50.210;10.628;2023-05-07T13:03:26;8.07;;;7.32;;
8536;SDS011;4306;50.210;10.628;2023-05-07T13:05:58;9.88;;;9.13;;
8536;SDS011;4306;50.210;10.628;2023-05-07T13:08:28;4.13;;;3.03;;
8536;SDS011;4306;50.210;10.628;2023-05-07T13:10:57;7.22;;;6.63;;
8536;SDS011;4306;50.210;10.628;2023-05-07T13:13:27;4.78;;;4.28;;
8536;SDS011;4306;50.210;10.628;2023-05-07T13:15:57;4.38;;;3.67;;
8536;SDS011;4306;50.210;10.628;2023-05-07T13:18:24;4.07;;;2.88;;
8536;SDS011;4306;50.210;10.628;2023-05-07T13:20:52;5.07;;;4.45;;
8536;SDS011;4306;50.210;10.628;2023-05-07T13:23:19;3.83;;;2.40;;
8536;SDS011;4306;50.210;10.628;2023-05-07T13:25:47;3.45;;;2.20;;
8536;SDS011;4306;50.210;10.628;2023-05-07T13:28:14;9.85;;;9.13;;
8536;SDS011;4306;50.210;10.628;2023-05-07T13:30:42;5.15;;;2.30;;
8536;SDS011;4306;50.210;10.628;2023-05-07T13:33:09;3.95;;;2.38;;
8536;SDS011;4306;50.210;10.628;2023-05-07T13:35:36;3.30;;;2.80;;
8536;SDS011;4306;50.210;10.628;2023-05-07T13:38:03;4.63;;;2.40;;
8536;SDS011;4306;50.210;10.628;2023-05-07T13:40:30;4.38;;;3.15;;
8536;SDS011;4306;50.210;10.628;2023-05-07T13:42:57;4.28;;;2.38;;
8536;SDS011;4306;50.210;10.628;2023-05-07T13:45:26;3.33;;;2.40;;
8536;SDS011;4306;50.210;10.628;2023-05-07T13:47:56;5.10;;;2.20;;
8536;SDS011;4306;50.210;10.628;2023-05-07T13:50:23;5.78;;;1.90;;
8536;SDS011;4306;50.210;10.628;2023-05-07T13:52:51;3.75;;;2.10;;
8536;SDS011;4306;50.210;10.628;2023-05-07T13:55:19;5.63;;;2.33;;
8536;SDS011;4306;50.210;10.628;2023-05-07T13:57:53;5.15;;;4.70;;
8536;SDS011;4306;50.210;10.628;2023-05-07T14:00:21;4.03;;;2.75;;
8536;SDS011;4306;50.210;10.628;2023-05-07T14:02:48;5.05;;;3.15;;
8536;SDS011;4306;50.210;10.628;2023-05-07T14:05:16;3.30;;;2.30;;
8536;SDS011;4306;50.210;10.628;2023-05-07T14:07:43;3.85;;;2.60;;
8536;SDS011;4306;50.210;10.628;2023-05-07T14:10:10;5.63;;;3.28;;
8536;SDS011;4306;50.210;10.628;2023-05-07T14:12:38;20.65;;;19.50;;
8536;SDS011;4306;50.210;10.628;2023-05-07T14:15:08;4.25;;;2.65;;
8536;SDS011;4306;50.210;10.628;2023-05-07T14:17:35;4.60;;;2.53;;
8536;SDS011;4306;50.210;10.628;2023-05-07T14:20:03;3.03;;;2.17;;
8536;SDS011;4306;50.210;10.628;2023-05-07T14:22:33;3.35;;;2.47;;
8536;SDS011;4306;50.210;10.628;2023-05-07T14:25:00;4.22;;;2.10;;
8536;SDS011;4306;50.210;10.628;2023-05-07T14:27:26;3.63;;;2.13;;
8536;SDS011;4306;50.210;10.628;2023-05-07T14:29:54;3.65;;;2.83;;
8536;SDS011;4306;50.210;10.628;2023-05-07T14:32:20;3.95;;;2.80;;
8536;SDS011;4306;50.210;10.628;2023-05-07T14:34:47;4.97;;;2.67;;
8536;SDS011;4306;50.210;10.628;2023-05-07T14:37:15;5.68;;;5.18;;
8536;SDS011;4306;50.210;10.628;2023-05-07T14:39:46;3.72;;;2.70;;
8536;SDS011;4306;50.210;10.628;2023-05-07T14:42:13;3.75;;;2.35;;
8536;SDS011;4306;50.210;10.628;2023-05-07T14:44:40;5.55;;;2.58;;
8536;SDS011;4306;50.210;10.628;2023-05-07T14:47:07;3.05;;;2.30;;
8536;SDS011;4306;50.210;10.628;2023-05-07T14:49:34;8.25;;;7.65;;
8536;SDS011;4306;50.210;10.628;2023-05-07T14:52:01;3.70;;;2.78;;
8536;SDS011;4306;50.210;10.628;2023-05-07T14:54:27;7.35;;;6.65;;
8536;SDS011;4306;50.210;10.628;2023-05-07T14:56:56;13.35;;;12.50;;
8536;SDS011;4306;50.210;10.628;2023-05-07T14:59:23;5.20;;;3.60;;
8536;SDS011;4306;50.210;10.628;2023-05-07T15:01:50;8.60;;;7.18;;
8536;SDS011;4306;50.210;10.628;2023-05-07T15:04:17;6.43;;;3.78;;